sensor_id;sensor_type;location;lat;lon;timestamp;temperature;humidity
17174;DHT22;8702;48.130;-1.696;2023-04-01T00:01:16;11.00;99.90
17174;DHT22;8702;48.130;-1.696;2023-04-01T00:03:43;10.90;99.90
17174;DHT22;8702;48.130;-1.696;2023-04-01T00:06:14;10.90;99.90
17174;DHT22;8702;48.130;-1.696;2023-04-01T00:08:41;10.90;99.90
17174;DHT22;8702;48.130;-1.696;2023-04-01T00:11:08;10.80;99.90
17174;DHT22;8702;48.130;-1.696;2023-04-01T00:13:35;10.80;99.90
17174;DHT22;8702;48.130;-1.696;2023-04-01T00:16:02;10.80;99.90
17174;DHT22;8702;48.130;-1.696;2023-04-01T00:18:31;10.70;99.90
17174;DHT22;8702;48.130;-1.696;2023-04-01T00:20:58;10.70;99.90
17174;DHT22;8702;48.130;-1.696;2023-04-01T00:23:25;10.70;99.90
17174;DHT22;8702;48.130;-1.696;2023-04-01T00:25:52;10.70;99.90
17174;DHT22;8702;48.130;-1.696;2023-04-01T00:28:20;10.70;99.90
17174;DHT22;8702;48.130;-1.696;2023-04-01T00:30:47;10.70;99.90
17174;DHT22;8702;48.130;-1.696;2023-04-01T00:33:14;10.70;99.90
17174;DHT22;8702;48.130;-1.696;2023-04-01T00:35:43;10.60;99.90
17174;DHT22;8702;48.130;-1.696;2023-04-01T00:38:11;10.60;99.90
17174;DHT22;8702;48.130;-1.696;2023-04-01T00:40:40;10.60;99.90
17174;DHT22;8702;48.130;-1.696;2023-04-01T00:43:12;10.60;99.90
17174;DHT22;8702;48.130;-1.696;2023-04-01T00:45:42;10.60;99.90
17174;DHT22;8702;48.130;-1.696;2023-04-01T00:48:12;10.60;99.90
17174;DHT22;8702;48.130;-1.696;2023-04-01T00:50:44;10.50;99.90
17174;DHT22;8702;48.130;-1.696;2023-04-01T00:53:12;10.60;99.90
17174;DHT22;8702;48.130;-1.696;2023-04-01T00:55:46;10.60;99.90
17174;DHT22;8702;48.130;-1.696;2023-04-01T00:58:18;10.60;99.90
17174;DHT22;8702;48.130;-1.696;2023-04-01T01:00:47;10.50;99.90
17174;DHT22;8702;48.130;-1.696;2023-04-01T01:03:16;10.50;99.90
17174;DHT22;8702;48.130;-1.696;2023-04-01T01:05:59;10.60;99.90
17174;DHT22;8702;48.130;-1.696;2023-04-01T01:08:43;10.60;99.90
17174;DHT22;8702;48.130;-1.696;2023-04-01T01:11:16;10.60;99.90
17174;DHT22;8702;48.130;-1.696;2023-04-01T01:13:51;10.60;99.90
17174;DHT22;8702;48.130;-1.696;2023-04-01T01:16:25;10.60;99.90
17174;DHT22;8702;48.130;-1.696;2023-04-01T01:18:55;10.60;99.90
17174;DHT22;8702;48.130;-1.696;2023-04-01T01:21:54;10.60;99.90
17174;DHT22;8702;48.130;-1.696;2023-04-01T01:24:43;10.50;99.90
17174;DHT22;8702;48.130;-1.696;2023-04-01T01:27:20;10.50;99.90
17174;DHT22;8702;48.130;-1.696;2023-04-01T01:30:26;10.50;99.90
17174;DHT22;8702;48.130;-1.696;2023-04-01T01:33:22;10.50;99.90
17174;DHT22;8702;48.130;-1.696;2023-04-01T01:35:54;10.50;99.90
17174;DHT22;8702;48.130;-1.696;2023-04-01T01:38:24;10.50;99.90
17174;DHT22;8702;48.130;-1.696;2023-04-01T01:40:52;10.60;99.90
17174;DHT22;8702;48.130;-1.696;2023-04-01T01:43:22;10.60;99.90
17174;DHT22;8702;48.130;-1.696;2023-04-01T01:45:53;10.60;99.90
17174;DHT22;8702;48.130;-1.696;2023-04-01T01:48:22;10.60;99.90
17174;DHT22;8702;48.130;-1.696;2023-04-01T01:50:50;10.60;99.90
17174;DHT22;8702;48.130;-1.696;2023-04-01T01:53:18;10.60;99.90
17174;DHT22;8702;48.130;-1.696;2023-04-01T01:55:47;10.60;99.90
17174;DHT22;8702;48.130;-1.696;2023-04-01T01:58:18;10.60;99.90
17174;DHT22;8702;48.130;-1.696;2023-04-01T02:00:49;10.60;99.90
17174;DHT22;8702;48.130;-1.696;2023-04-01T02:03:17;10.50;99.90
17174;DHT22;8702;48.130;-1.696;2023-04-01T02:05:47;10.50;99.90
17174;DHT22;8702;48.130;-1.696;2023-04-01T02:08:17;10.50;99.90
17174;DHT22;8702;48.130;-1.696;2023-04-01T02:10:53;10.50;99.90
17174;DHT22;8702;48.130;-1.696;2023-04-01T02:13:27;10.50;99.90
17174;DHT22;8702;48.130;-1.696;2023-04-01T02:15:59;10.60;99.90
17174;DHT22;8702;48.130;-1.696;2023-04-01T02:18:28;10.50;99.90
17174;DHT22;8702;48.130;-1.696;2023-04-01T02:20:58;10.50;99.90
17174;DHT22;8702;48.130;-1.696;2023-04-01T02:23:26;10.40;99.90
17174;DHT22;8702;48.130;-1.696;2023-04-01T02:25:56;10.40;99.90
17174;DHT22;8702;48.130;-1.696;2023-04-01T02:28:23;10.40;99.90
17174;DHT22;8702;48.130;-1.696;2023-04-01T02:30:51;10.40;99.90
17174;DHT22;8702;48.130;-1.696;2023-04-01T02:33:19;10.40;99.90
17174;DHT22;8702;48.130;-1.696;2023-04-01T02:35:47;10.40;99.90
17174;DHT22;8702;48.130;-1.696;2023-04-01T02:38:14;10.30;99.90
17174;DHT22;8702;48.130;-1.696;2023-04-01T02:40:44;10.30;99.90
17174;DHT22;8702;48.130;-1.696;2023-04-01T02:43:12;10.30;99.90
17174;DHT22;8702;48.130;-1.696;2023-04-01T02:45:40;10.30;99.90
17174;DHT22;8702;48.130;-1.696;2023-04-01T02:48:07;10.30;99.90
17174;DHT22;8702;48.130;-1.696;2023-04-01T02:50:34;10.40;99.90
17174;DHT22;8702;48.130;-1.696;2023-04-01T02:53:01;10.30;99.90
17174;DHT22;8702;48.130;-1.696;2023-04-01T02:55:29;10.20;99.90
17174;DHT22;8702;48.130;-1.696;2023-04-01T02:57:56;10.20;99.90
17174;DHT22;8702;48.130;-1.696;2023-04-01T03:00:25;10.30;99.90
17174;DHT22;8702;48.130;-1.696;2023-04-01T03:02:53;10.20;99.90
17174;DHT22;8702;48.130;-1.696;2023-04-01T03:05:20;10.20;99.90
17174;DHT22;8702;48.130;-1.696;2023-04-01T03:07:47;10.20;99.90
17174;DHT22;8702;48.130;-1.696;2023-04-01T03:10:14;10.20;99.90
17174;DHT22;8702;48.130;-1.696;2023-04-01T03:12:41;10.20;99.90
17174;DHT22;8702;48.130;-1.696;2023-04-01T03:15:10;10.20;99.90
17174;DHT22;8702;48.130;-1.696;2023-04-01T03:17:41;10.20;99.90
17174;DHT22;8702;48.130;-1.696;2023-04-01T03:20:09;10.20;99.90
17174;DHT22;8702;48.130;-1.696;2023-04-01T03:22:36;10.20;99.90
17174;DHT22;8702;48.130;-1.696;2023-04-01T03:25:04;10.20;99.90
17174;DHT22;8702;48.130;-1.696;2023-04-01T03:27:31;10.20;99.90
17174;DHT22;8702;48.130;-1.696;2023-04-01T03:29:58;10.20;99.90
17174;DHT22;8702;48.130;-1.696;2023-04-01T03:32:25;10.10;99.90
17174;DHT22;8702;48.130;-1.696;2023-04-01T03:34:54;10.10;99.90
17174;DHT22;8702;48.130;-1.696;2023-04-01T03:37:21;10.00;99.90
17174;DHT22;8702;48.130;-1.696;2023-04-01T03:39:48;10.10;99.90
17174;DHT22;8702;48.130;-1.696;2023-04-01T03:42:15;10.00;99.90
17174;DHT22;8702;48.130;-1.696;2023-04-01T03:44:42;10.00;99.90
17174;DHT22;8702;48.130;-1.696;2023-04-01T03:47:09;10.00;99.90
17174;DHT22;8702;48.130;-1.696;2023-04-01T03:49:36;10.00;99.90
17174;DHT22;8702;48.130;-1.696;2023-04-01T03:52:04;10.00;99.90
17174;DHT22;8702;48.130;-1.696;2023-04-01T03:54:34;10.10;99.90
17174;DHT22;8702;48.130;-1.696;2023-04-01T03:57:01;10.10;99.90
17174;DHT22;8702;48.130;-1.696;2023-04-01T03:59:28;10.10;99.90
17174;DHT22;8702;48.130;-1.696;2023-04-01T04:01:55;10.10;99.90
17174;DHT22;8702;48.130;-1.696;2023-04-01T04:04:22;10.10;99.90
17174;DHT22;8702;48.130;-1.696;2023-04-01T04:06:49;10.20;99.90
17174;DHT22;8702;48.130;-1.696;2023-04-01T04:09:17;10.20;99.90
17174;DHT22;8702;48.130;-1.696;2023-04-01T04:11:44;10.20;99.90
17174;DHT22;8702;48.130;-1.696;2023-04-01T04:14:11;10.20;99.90
17174;DHT22;8702;48.130;-1.696;2023-04-01T04:16:38;10.30;99.90
17174;DHT22;8702;48.130;-1.696;2023-04-01T04:19:05;10.30;99.90
17174;DHT22;8702;48.130;-1.696;2023-04-01T04:21:32;10.00;99.90
17174;DHT22;8702;48.130;-1.696;2023-04-01T04:23:59;10.20;99.90
17174;DHT22;8702;48.130;-1.696;2023-04-01T04:26:28;10.30;99.90
17174;DHT22;8702;48.130;-1.696;2023-04-01T04:28:55;10.20;99.90
17174;DHT22;8702;48.130;-1.696;2023-04-01T04:31:23;10.30;99.90
17174;DHT22;8702;48.130;-1.696;2023-04-01T04:33:51;10.30;99.90
17174;DHT22;8702;48.130;-1.696;2023-04-01T04:36:18;10.30;99.90
17174;DHT22;8702;48.130;-1.696;2023-04-01T04:38:45;10.30;99.90
17174;DHT22;8702;48.130;-1.696;2023-04-01T04:41:13;10.30;99.90
17174;DHT22;8702;48.130;-1.696;2023-04-01T04:43:41;10.30;99.90
17174;DHT22;8702;48.130;-1.696;2023-04-01T04:46:09;10.20;99.90
17174;DHT22;8702;48.130;-1.696;2023-04-01T04:48:36;10.30;99.90
17174;DHT22;8702;48.130;-1.696;2023-04-01T04:51:03;10.30;99.90
17174;DHT22;8702;48.130;-1.696;2023-04-01T04:53:30;10.30;99.90
17174;DHT22;8702;48.130;-1.696;2023-04-01T04:55:57;10.30;99.90
17174;DHT22;8702;48.130;-1.696;2023-04-01T04:58:24;10.20;99.90
17174;DHT22;8702;48.130;-1.696;2023-04-01T05:00:53;10.20;99.90
17174;DHT22;8702;48.130;-1.696;2023-04-01T05:03:20;10.20;99.90
17174;DHT22;8702;48.130;-1.696;2023-04-01T05:05:51;10.20;99.90
17174;DHT22;8702;48.130;-1.696;2023-04-01T05:08:19;10.10;99.90
17174;DHT22;8702;48.130;-1.696;2023-04-01T05:10:46;10.00;99.90
17174;DHT22;8702;48.130;-1.696;2023-04-01T05:13:13;10.10;99.90
17174;DHT22;8702;48.130;-1.696;2023-04-01T05:15:41;10.10;99.90
17174;DHT22;8702;48.130;-1.696;2023-04-01T05:18:09;10.10;99.90
17174;DHT22;8702;48.130;-1.696;2023-04-01T05:20:36;10.10;99.90
17174;DHT22;8702;48.130;-1.696;2023-04-01T05:23:03;10.00;99.90
17174;DHT22;8702;48.130;-1.696;2023-04-01T05:25:30;10.00;99.90
17174;DHT22;8702;48.130;-1.696;2023-04-01T05:27:57;9.90;99.90
17174;DHT22;8702;48.130;-1.696;2023-04-01T05:30:24;10.00;99.90
17174;DHT22;8702;48.130;-1.696;2023-04-01T05:32:51;10.00;99.90
17174;DHT22;8702;48.130;-1.696;2023-04-01T05:35:19;10.00;99.90
17174;DHT22;8702;48.130;-1.696;2023-04-01T05:37:46;9.90;99.90
17174;DHT22;8702;48.130;-1.696;2023-04-01T05:40:13;9.90;99.90
17174;DHT22;8702;48.130;-1.696;2023-04-01T05:42:40;9.80;99.90
17174;DHT22;8702;48.130;-1.696;2023-04-01T05:45:08;9.80;99.90
17174;DHT22;8702;48.130;-1.696;2023-04-01T05:47:35;9.80;99.90
17174;DHT22;8702;48.130;-1.696;2023-04-01T05:50:02;9.80;99.90
17174;DHT22;8702;48.130;-1.696;2023-04-01T05:52:30;9.80;99.90
17174;DHT22;8702;48.130;-1.696;2023-04-01T05:54:57;9.80;99.90
17174;DHT22;8702;48.130;-1.696;2023-04-01T05:57:25;9.80;99.90
17174;DHT22;8702;48.130;-1.696;2023-04-01T05:59:52;9.70;99.90
17174;DHT22;8702;48.130;-1.696;2023-04-01T06:02:19;9.70;99.90
17174;DHT22;8702;48.130;-1.696;2023-04-01T06:04:46;9.70;99.90
17174;DHT22;8702;48.130;-1.696;2023-04-01T06:07:15;9.70;99.90
17174;DHT22;8702;48.130;-1.696;2023-04-01T06:09:44;9.80;99.90
17174;DHT22;8702;48.130;-1.696;2023-04-01T06:12:29;9.30;99.90
17174;DHT22;8702;48.130;-1.696;2023-04-01T06:15:09;9.90;99.90
17174;DHT22;8702;48.130;-1.696;2023-04-01T06:17:51;9.90;99.90
17174;DHT22;8702;48.130;-1.696;2023-04-01T06:20:24;9.80;99.90
17174;DHT22;8702;48.130;-1.696;2023-04-01T06:23:06;9.70;99.90
17174;DHT22;8702;48.130;-1.696;2023-04-01T06:25:54;9.70;99.90
17174;DHT22;8702;48.130;-1.696;2023-04-01T06:28:42;9.80;99.90
17174;DHT22;8702;48.130;-1.696;2023-04-01T06:31:32;9.80;99.90
17174;DHT22;8702;48.130;-1.696;2023-04-01T06:34:16;9.70;99.90
17174;DHT22;8702;48.130;-1.696;2023-04-01T06:37:01;9.90;99.90
17174;DHT22;8702;48.130;-1.696;2023-04-01T06:39:47;9.90;99.90
17174;DHT22;8702;48.130;-1.696;2023-04-01T06:42:28;9.90;99.90
17174;DHT22;8702;48.130;-1.696;2023-04-01T06:45:07;9.90;99.90
17174;DHT22;8702;48.130;-1.696;2023-04-01T06:47:45;9.90;99.90
17174;DHT22;8702;48.130;-1.696;2023-04-01T06:50:21;9.90;99.90
17174;DHT22;8702;48.130;-1.696;2023-04-01T06:52:56;9.90;99.90
17174;DHT22;8702;48.130;-1.696;2023-04-01T06:55:29;10.00;99.90
17174;DHT22;8702;48.130;-1.696;2023-04-01T06:58:01;10.00;99.90
17174;DHT22;8702;48.130;-1.696;2023-04-01T07:00:32;10.00;99.90
17174;DHT22;8702;48.130;-1.696;2023-04-01T07:03:06;10.10;99.90
17174;DHT22;8702;48.130;-1.696;2023-04-01T07:05:36;10.10;99.90
17174;DHT22;8702;48.130;-1.696;2023-04-01T07:08:04;10.20;99.90
17174;DHT22;8702;48.130;-1.696;2023-04-01T07:10:41;10.20;99.90
17174;DHT22;8702;48.130;-1.696;2023-04-01T07:13:15;10.20;99.90
17174;DHT22;8702;48.130;-1.696;2023-04-01T07:15:57;10.20;99.90
17174;DHT22;8702;48.130;-1.696;2023-04-01T07:18:32;10.30;99.90
17174;DHT22;8702;48.130;-1.696;2023-04-01T07:21:01;10.30;99.90
17174;DHT22;8702;48.130;-1.696;2023-04-01T07:23:33;10.30;99.90
17174;DHT22;8702;48.130;-1.696;2023-04-01T07:26:09;10.30;99.90
17174;DHT22;8702;48.130;-1.696;2023-04-01T07:28:39;10.30;99.90
17174;DHT22;8702;48.130;-1.696;2023-04-01T07:31:14;10.40;99.90
17174;DHT22;8702;48.130;-1.696;2023-04-01T07:33:53;10.40;99.90
17174;DHT22;8702;48.130;-1.696;2023-04-01T07:36:26;10.50;99.90
17174;DHT22;8702;48.130;-1.696;2023-04-01T07:39:06;10.60;99.90
17174;DHT22;8702;48.130;-1.696;2023-04-01T07:41:44;10.70;99.90
17174;DHT22;8702;48.130;-1.696;2023-04-01T07:44:23;10.70;99.90
17174;DHT22;8702;48.130;-1.696;2023-04-01T07:46:59;10.70;99.90
17174;DHT22;8702;48.130;-1.696;2023-04-01T07:49:37;10.70;99.90
17174;DHT22;8702;48.130;-1.696;2023-04-01T07:52:14;10.80;99.90
17174;DHT22;8702;48.130;-1.696;2023-04-01T07:54:46;10.80;99.90
17174;DHT22;8702;48.130;-1.696;2023-04-01T07:57:19;10.90;99.90
17174;DHT22;8702;48.130;-1.696;2023-04-01T07:59:57;10.90;99.90
17174;DHT22;8702;48.130;-1.696;2023-04-01T08:02:36;11.00;99.90
17174;DHT22;8702;48.130;-1.696;2023-04-01T08:05:17;11.10;99.90
17174;DHT22;8702;48.130;-1.696;2023-04-01T08:07:50;11.10;99.90
17174;DHT22;8702;48.130;-1.696;2023-04-01T08:10:24;10.90;99.90
17174;DHT22;8702;48.130;-1.696;2023-04-01T08:13:00;10.90;99.90
17174;DHT22;8702;48.130;-1.696;2023-04-01T08:15:36;10.90;99.90
17174;DHT22;8702;48.130;-1.696;2023-04-01T08:18:14;10.90;99.90
17174;DHT22;8702;48.130;-1.696;2023-04-01T08:20:47;11.00;99.90
17174;DHT22;8702;48.130;-1.696;2023-04-01T08:23:18;11.10;99.90
17174;DHT22;8702;48.130;-1.696;2023-04-01T08:25:52;11.10;99.90
17174;DHT22;8702;48.130;-1.696;2023-04-01T08:30:57;11.00;99.90
17174;DHT22;8702;48.130;-1.696;2023-04-01T08:33:27;10.60;99.90
17174;DHT22;8702;48.130;-1.696;2023-04-01T08:35:58;11.20;99.90
17174;DHT22;8702;48.130;-1.696;2023-04-01T08:41:06;11.20;99.90
17174;DHT22;8702;48.130;-1.696;2023-04-01T08:49:10;11.20;99.90
17174;DHT22;8702;48.130;-1.696;2023-04-01T08:52:05;11.30;99.90
17174;DHT22;8702;48.130;-1.696;2023-04-01T08:54:48;11.30;99.90
17174;DHT22;8702;48.130;-1.696;2023-04-01T08:57:35;11.30;99.90
17174;DHT22;8702;48.130;-1.696;2023-04-01T09:00:13;11.30;99.90
17174;DHT22;8702;48.130;-1.696;2023-04-01T09:06:24;11.40;99.90
17174;DHT22;8702;48.130;-1.696;2023-04-01T09:09:17;11.50;99.90
17174;DHT22;8702;48.130;-1.696;2023-04-01T09:12:02;11.60;99.90
17174;DHT22;8702;48.130;-1.696;2023-04-01T09:14:58;11.60;99.90
17174;DHT22;8702;48.130;-1.696;2023-04-01T09:20:44;11.70;99.90
17174;DHT22;8702;48.130;-1.696;2023-04-01T09:23:33;11.70;99.90
17174;DHT22;8702;48.130;-1.696;2023-04-01T09:29:13;11.60;99.90
17174;DHT22;8702;48.130;-1.696;2023-04-01T09:32:05;11.60;99.90
17174;DHT22;8702;48.130;-1.696;2023-04-01T09:34:53;11.70;99.90
17174;DHT22;8702;48.130;-1.696;2023-04-01T09:37:34;11.80;99.90
17174;DHT22;8702;48.130;-1.696;2023-04-01T09:43:22;11.60;99.90
17174;DHT22;8702;48.130;-1.696;2023-04-01T09:46:12;11.50;99.90
17174;DHT22;8702;48.130;-1.696;2023-04-01T09:51:52;11.70;99.90
17174;DHT22;8702;48.130;-1.696;2023-04-01T09:54:36;11.80;99.90
17174;DHT22;8702;48.130;-1.696;2023-04-01T09:57:34;11.90;99.90
17174;DHT22;8702;48.130;-1.696;2023-04-01T10:00:29;11.90;99.90
17174;DHT22;8702;48.130;-1.696;2023-04-01T10:03:23;11.90;99.90
17174;DHT22;8702;48.130;-1.696;2023-04-01T10:09:52;11.80;99.90
17174;DHT22;8702;48.130;-1.696;2023-04-01T10:12:56;11.70;99.90
17174;DHT22;8702;48.130;-1.696;2023-04-01T10:19:07;11.70;99.90
17174;DHT22;8702;48.130;-1.696;2023-04-01T10:22:15;11.90;99.90
17174;DHT22;8702;48.130;-1.696;2023-04-01T10:25:18;11.90;99.90
17174;DHT22;8702;48.130;-1.696;2023-04-01T10:28:12;12.10;99.90
17174;DHT22;8702;48.130;-1.696;2023-04-01T10:31:20;12.10;99.90
17174;DHT22;8702;48.130;-1.696;2023-04-01T10:36:54;12.30;99.90
17174;DHT22;8702;48.130;-1.696;2023-04-01T10:42:48;12.30;99.90
17174;DHT22;8702;48.130;-1.696;2023-04-01T11:08:17;12.90;99.90
17174;DHT22;8702;48.130;-1.696;2023-04-01T11:11:18;12.90;99.90
17174;DHT22;8702;48.130;-1.696;2023-04-01T11:19:47;12.90;99.90
17174;DHT22;8702;48.130;-1.696;2023-04-01T11:41:22;12.10;99.90
17174;DHT22;8702;48.130;-1.696;2023-04-01T11:44:08;12.00;99.90
17174;DHT22;8702;48.130;-1.696;2023-04-01T11:46:47;12.10;99.90
17174;DHT22;8702;48.130;-1.696;2023-04-01T11:49:28;12.00;99.90
17174;DHT22;8702;48.130;-1.696;2023-04-01T11:52:09;12.00;99.90
17174;DHT22;8702;48.130;-1.696;2023-04-01T11:55:02;12.00;99.90
17174;DHT22;8702;48.130;-1.696;2023-04-01T11:57:54;12.20;99.90
17174;DHT22;8702;48.130;-1.696;2023-04-01T12:00:35;12.10;99.90
17174;DHT22;8702;48.130;-1.696;2023-04-01T12:03:21;12.20;99.90
17174;DHT22;8702;48.130;-1.696;2023-04-01T12:05:58;12.40;99.90
17174;DHT22;8702;48.130;-1.696;2023-04-01T12:08:35;12.40;99.90
17174;DHT22;8702;48.130;-1.696;2023-04-01T12:11:12;12.50;99.90
17174;DHT22;8702;48.130;-1.696;2023-04-01T12:13:48;12.60;99.90
17174;DHT22;8702;48.130;-1.696;2023-04-01T12:16:35;12.70;99.90
17174;DHT22;8702;48.130;-1.696;2023-04-01T12:19:11;12.80;99.90
17174;DHT22;8702;48.130;-1.696;2023-04-01T12:21:48;12.80;99.90
17174;DHT22;8702;48.130;-1.696;2023-04-01T12:24:46;12.90;99.90
17174;DHT22;8702;48.130;-1.696;2023-04-01T12:37:47;13.20;99.90
17174;DHT22;8702;48.130;-1.696;2023-04-01T12:43:17;12.90;99.90
17174;DHT22;8702;48.130;-1.696;2023-04-01T12:45:54;12.80;99.90
17174;DHT22;8702;48.130;-1.696;2023-04-01T12:48:40;12.80;99.90
17174;DHT22;8702;48.130;-1.696;2023-04-01T12:51:23;12.80;99.90
17174;DHT22;8702;48.130;-1.696;2023-04-01T12:54:24;13.00;99.90
17174;DHT22;8702;48.130;-1.696;2023-04-01T12:57:06;13.20;99.90
17174;DHT22;8702;48.130;-1.696;2023-04-01T12:59:58;12.80;99.90
17174;DHT22;8702;48.130;-1.696;2023-04-01T13:02:37;12.70;99.90
17174;DHT22;8702;48.130;-1.696;2023-04-01T13:05:18;12.70;99.90
17174;DHT22;8702;48.130;-1.696;2023-04-01T13:07:53;12.50;99.90
17174;DHT22;8702;48.130;-1.696;2023-04-01T13:10:31;12.30;99.90
17174;DHT22;8702;48.130;-1.696;2023-04-01T13:13:20;12.30;99.90
17174;DHT22;8702;48.130;-1.696;2023-04-01T13:15:52;12.30;99.90
17174;DHT22;8702;48.130;-1.696;2023-04-01T13:18:29;12.30;99.90
17174;DHT22;8702;48.130;-1.696;2023-04-01T13:21:05;12.20;99.90
17174;DHT22;8702;48.130;-1.696;2023-04-01T13:23:42;12.30;99.90
17174;DHT22;8702;48.130;-1.696;2023-04-01T13:26:17;12.30;99.90
17174;DHT22;8702;48.130;-1.696;2023-04-01T13:28:50;12.30;99.90
17174;DHT22;8702;48.130;-1.696;2023-04-01T13:31:33;12.30;99.90
17174;DHT22;8702;48.130;-1.696;2023-04-01T13:34:16;12.40;99.90
17174;DHT22;8702;48.130;-1.696;2023-04-01T13:36:56;12.60;99.90
17174;DHT22;8702;48.130;-1.696;2023-04-01T13:39:41;12.90;99.90
17174;DHT22;8702;48.130;-1.696;2023-04-01T13:42:21;13.00;99.90
17174;DHT22;8702;48.130;-1.696;2023-04-01T13:44:55;13.10;99.90
17174;DHT22;8702;48.130;-1.696;2023-04-01T13:50:37;13.10;99.90
17174;DHT22;8702;48.130;-1.696;2023-04-01T13:53:28;13.20;99.90
17174;DHT22;8702;48.130;-1.696;2023-04-01T13:56:07;13.00;99.90
17174;DHT22;8702;48.130;-1.696;2023-04-01T13:58:55;12.70;99.90
17174;DHT22;8702;48.130;-1.696;2023-04-01T14:01:31;12.70;99.90
17174;DHT22;8702;48.130;-1.696;2023-04-01T14:04:20;12.60;99.90
17174;DHT22;8702;48.130;-1.696;2023-04-01T14:06:59;12.80;99.90
17174;DHT22;8702;48.130;-1.696;2023-04-01T14:09:40;13.00;99.90
17174;DHT22;8702;48.130;-1.696;2023-04-01T14:12:13;13.20;99.90
17174;DHT22;8702;48.130;-1.696;2023-04-01T14:14:56;13.40;99.90
17174;DHT22;8702;48.130;-1.696;2023-04-01T14:17:41;13.50;99.90
17174;DHT22;8702;48.130;-1.696;2023-04-01T14:20:32;13.60;99.90
17174;DHT22;8702;48.130;-1.696;2023-04-01T14:23:13;13.70;99.90
17174;DHT22;8702;48.130;-1.696;2023-04-01T14:25:59;13.90;99.90
17174;DHT22;8702;48.130;-1.696;2023-04-01T14:28:36;13.90;99.90
17174;DHT22;8702;48.130;-1.696;2023-04-01T14:31:25;13.60;99.90
17174;DHT22;8702;48.130;-1.696;2023-04-01T14:34:04;13.50;99.90
17174;DHT22;8702;48.130;-1.696;2023-04-01T14:36:43;13.40;99.90
17174;DHT22;8702;48.130;-1.696;2023-04-01T14:42:18;13.30;99.90
17174;DHT22;8702;48.130;-1.696;2023-04-01T14:45:19;13.50;99.90
17174;DHT22;8702;48.130;-1.696;2023-04-01T14:47:50;13.70;99.90
17174;DHT22;8702;48.130;-1.696;2023-04-01T14:50:22;14.00;99.90
17174;DHT22;8702;48.130;-1.696;2023-04-01T14:52:59;14.60;99.90
17174;DHT22;8702;48.130;-1.696;2023-04-01T14:55:33;14.60;99.90
17174;DHT22;8702;48.130;-1.696;2023-04-01T14:58:12;14.90;99.90
17174;DHT22;8702;48.130;-1.696;2023-04-01T15:00:49;14.90;99.90
17174;DHT22;8702;48.130;-1.696;2023-04-01T15:03:22;15.00;99.90
17174;DHT22;8702;48.130;-1.696;2023-04-01T15:05:56;15.20;99.90
17174;DHT22;8702;48.130;-1.696;2023-04-01T15:08:31;15.30;99.90
17174;DHT22;8702;48.130;-1.696;2023-04-01T15:11:21;15.30;99.90
17174;DHT22;8702;48.130;-1.696;2023-04-01T15:16:26;15.50;99.90
17174;DHT22;8702;48.130;-1.696;2023-04-01T15:19:04;15.70;99.90
17174;DHT22;8702;48.130;-1.696;2023-04-01T15:24:46;15.70;99.90
17174;DHT22;8702;48.130;-1.696;2023-04-01T15:27:28;15.80;99.90
17174;DHT22;8702;48.130;-1.696;2023-04-01T15:30:23;15.80;99.90
17174;DHT22;8702;48.130;-1.696;2023-04-01T15:33:15;16.00;99.90
17174;DHT22;8702;48.130;-1.696;2023-04-01T15:35:49;16.30;99.90
17174;DHT22;8702;48.130;-1.696;2023-04-01T15:38:30;16.40;99.90
17174;DHT22;8702;48.130;-1.696;2023-04-01T15:49:30;17.30;98.60
17174;DHT22;8702;48.130;-1.696;2023-04-01T15:52:06;16.90;97.70
17174;DHT22;8702;48.130;-1.696;2023-04-01T15:55:07;16.30;98.20
17174;DHT22;8702;48.130;-1.696;2023-04-01T15:57:45;16.00;98.90
17174;DHT22;8702;48.130;-1.696;2023-04-01T16:00:27;15.60;99.30
17174;DHT22;8702;48.130;-1.696;2023-04-01T16:03:20;15.60;99.60
17174;DHT22;8702;48.130;-1.696;2023-04-01T16:08:55;15.30;99.90
17174;DHT22;8702;48.130;-1.696;2023-04-01T16:11:33;15.00;99.90
17174;DHT22;8702;48.130;-1.696;2023-04-01T16:14:16;14.90;99.90
17174;DHT22;8702;48.130;-1.696;2023-04-01T16:16:56;14.90;99.90
17174;DHT22;8702;48.130;-1.696;2023-04-01T16:19:33;14.90;99.90
17174;DHT22;8702;48.130;-1.696;2023-04-01T16:22:08;14.90;99.90
17174;DHT22;8702;48.130;-1.696;2023-04-01T16:24:41;15.00;99.90
17174;DHT22;8702;48.130;-1.696;2023-04-01T16:27:13;14.90;99.90
17174;DHT22;8702;48.130;-1.696;2023-04-01T16:29:47;14.80;99.90
17174;DHT22;8702;48.130;-1.696;2023-04-01T16:32:23;14.60;99.90
17174;DHT22;8702;48.130;-1.696;2023-04-01T16:35:04;14.50;99.90
17174;DHT22;8702;48.130;-1.696;2023-04-01T16:37:43;14.60;99.90
17174;DHT22;8702;48.130;-1.696;2023-04-01T16:40:20;14.40;99.90
17174;DHT22;8702;48.130;-1.696;2023-04-01T16:42:52;14.30;99.90
17174;DHT22;8702;48.130;-1.696;2023-04-01T16:45:30;14.30;99.90
17174;DHT22;8702;48.130;-1.696;2023-04-01T16:48:05;14.20;99.90
17174;DHT22;8702;48.130;-1.696;2023-04-01T16:50:44;14.10;99.90
17174;DHT22;8702;48.130;-1.696;2023-04-01T16:53:17;14.10;99.90
17174;DHT22;8702;48.130;-1.696;2023-04-01T16:55:49;14.00;99.90
17174;DHT22;8702;48.130;-1.696;2023-04-01T16:58:23;14.10;99.90
17174;DHT22;8702;48.130;-1.696;2023-04-01T17:00:58;14.20;99.90
17174;DHT22;8702;48.130;-1.696;2023-04-01T17:03:28;14.20;99.90
17174;DHT22;8702;48.130;-1.696;2023-04-01T17:06:10;14.20;99.90
17174;DHT22;8702;48.130;-1.696;2023-04-01T17:09:00;14.60;99.90
17174;DHT22;8702;48.130;-1.696;2023-04-01T17:11:31;14.70;99.90
17174;DHT22;8702;48.130;-1.696;2023-04-01T17:14:12;15.00;99.90
17174;DHT22;8702;48.130;-1.696;2023-04-01T17:19:47;15.40;99.90
17174;DHT22;8702;48.130;-1.696;2023-04-01T17:22:27;15.60;99.90
17174;DHT22;8702;48.130;-1.696;2023-04-01T17:25:19;15.70;99.90
17174;DHT22;8702;48.130;-1.696;2023-04-01T17:27:51;16.20;99.90
17174;DHT22;8702;48.130;-1.696;2023-04-01T17:30:28;16.30;99.50
17174;DHT22;8702;48.130;-1.696;2023-04-01T17:35:58;15.00;99.90
17174;DHT22;8702;48.130;-1.696;2023-04-01T17:38:39;15.30;99.90
17174;DHT22;8702;48.130;-1.696;2023-04-01T17:41:10;15.60;99.90
17174;DHT22;8702;48.130;-1.696;2023-04-01T17:43:45;15.30;99.90
17174;DHT22;8702;48.130;-1.696;2023-04-01T17:46:27;14.90;99.90
17174;DHT22;8702;48.130;-1.696;2023-04-01T17:49:02;14.40;99.90
17174;DHT22;8702;48.130;-1.696;2023-04-01T17:51:40;14.10;99.90
17174;DHT22;8702;48.130;-1.696;2023-04-01T17:54:21;14.00;99.90
17174;DHT22;8702;48.130;-1.696;2023-04-01T17:57:02;14.10;99.90
17174;DHT22;8702;48.130;-1.696;2023-04-01T17:59:36;14.00;99.90
17174;DHT22;8702;48.130;-1.696;2023-04-01T18:02:12;13.90;99.90
17174;DHT22;8702;48.130;-1.696;2023-04-01T18:05:00;13.80;99.90
17174;DHT22;8702;48.130;-1.696;2023-04-01T18:07:50;13.70;99.90
17174;DHT22;8702;48.130;-1.696;2023-04-01T18:10:25;13.50;99.90
17174;DHT22;8702;48.130;-1.696;2023-04-01T18:13:21;13.40;99.90
17174;DHT22;8702;48.130;-1.696;2023-04-01T18:15:59;13.40;99.90
17174;DHT22;8702;48.130;-1.696;2023-04-01T18:18:46;13.40;99.90
17174;DHT22;8702;48.130;-1.696;2023-04-01T18:21:27;13.30;99.90
17174;DHT22;8702;48.130;-1.696;2023-04-01T18:23:58;13.20;99.90
17174;DHT22;8702;48.130;-1.696;2023-04-01T18:26:29;13.10;99.90
17174;DHT22;8702;48.130;-1.696;2023-04-01T18:29:01;13.10;99.90
17174;DHT22;8702;48.130;-1.696;2023-04-01T18:31:34;13.20;99.90
17174;DHT22;8702;48.130;-1.696;2023-04-01T18:34:08;13.10;99.90
17174;DHT22;8702;48.130;-1.696;2023-04-01T18:36:44;13.10;99.90